createdAt,value
2018-04-17T00:00:59.291Z,75.30
2018-04-17T00:03:27.037Z,75.10
2018-04-17T00:05:54.786Z,75.20
2018-04-17T00:08:22.541Z,75.30
2018-04-17T00:10:50.386Z,75.20
2018-04-17T00:13:18.179Z,75.10
2018-04-17T00:15:45.988Z,75.00
2018-04-17T00:18:14.044Z,75.00
2018-04-17T00:20:41.802Z,75.10
2018-04-17T00:23:09.542Z,74.80
2018-04-17T00:25:37.396Z,74.80
2018-04-17T00:28:05.249Z,74.70
2018-04-17T00:30:33.100Z,74.50
2018-04-17T00:33:00.953Z,74.40
2018-04-17T00:35:28.700Z,74.30
2018-04-17T00:37:56.453Z,74.20
2018-04-17T00:40:24.295Z,73.50
2018-04-17T00:42:52.052Z,74.10
2018-04-17T00:45:19.902Z,73.90
2018-04-17T00:47:47.652Z,73.90
2018-04-17T00:50:15.505Z,73.60
2018-04-17T00:52:43.253Z,73.70
2018-04-17T00:55:11.107Z,73.50
2018-04-17T00:57:38.862Z,73.90
2018-04-17T01:00:06.713Z,74.50
2018-04-17T01:02:34.566Z,74.60
2018-04-17T01:05:02.311Z,74.40
2018-04-17T01:07:30.167Z,74.50
2018-04-17T01:09:57.915Z,74.30
2018-04-17T01:12:25.764Z,73.70
2018-04-17T01:14:53.514Z,73.40
2018-04-17T01:17:21.365Z,73.90
2018-04-17T01:19:49.217Z,72.90
2018-04-17T01:22:16.903Z,72.50
2018-04-17T01:24:45.432Z,72.20
2018-04-17T01:27:13.284Z,72.20
2018-04-17T01:29:41.074Z,72.00
2018-04-17T01:32:09.605Z,72.50
2018-04-17T01:34:37.355Z,72.50
2018-04-17T01:37:05.209Z,72.50
2018-04-17T01:39:33.721Z,73.00
2018-04-17T01:42:01.527Z,73.20
2018-04-17T01:44:29.378Z,73.10
2018-04-17T01:46:57.128Z,73.20
2018-04-17T01:49:24.999Z,73.00
2018-04-17T01:51:52.831Z,72.60
2018-04-17T01:54:20.583Z,72.30
2018-04-17T01:56:48.435Z,71.80
2018-04-17T01:59:16.183Z,71.30
2018-04-17T02:01:43.933Z,71.30
2018-04-17T02:04:11.683Z,71.40
2018-04-17T02:06:39.538Z,71.30
2018-04-17T02:09:07.386Z,71.40
2018-04-17T02:11:35.241Z,71.20
2018-04-17T02:14:03.093Z,71.30
2018-04-17T02:16:30.843Z,71.00
2018-04-17T02:18:58.696Z,71.10
2018-04-17T02:21:26.483Z,70.90
2018-04-17T02:23:55.011Z,70.80
2018-04-17T02:26:22.778Z,70.70
2018-04-17T02:28:50.612Z,70.80
2018-04-17T02:31:18.465Z,71.20
2018-04-17T02:33:46.317Z,71.30
2018-04-17T02:36:14.168Z,71.20
2018-04-17T02:38:42.020Z,71.20
2018-04-17T02:41:09.769Z,70.80
2018-04-17T02:43:37.621Z,70.60
2018-04-17T02:46:05.372Z,70.50
2018-04-17T02:48:33.121Z,70.30
2018-04-17T02:51:00.974Z,70.20
2018-04-17T02:53:28.824Z,69.70
2018-04-17T02:55:56.573Z,69.60
2018-04-17T02:58:24.428Z,69.70
2018-04-17T03:00:52.276Z,69.90
2018-04-17T03:03:20.024Z,69.90
2018-04-17T03:05:47.773Z,70.00
2018-04-17T03:08:15.628Z,69.40
2018-04-17T03:10:43.375Z,69.20
2018-04-17T03:13:11.168Z,69.20
2018-04-17T03:15:38.975Z,69.20
2018-04-17T03:18:06.725Z,69.20
2018-04-17T03:20:34.588Z,68.90
2018-04-17T03:23:02.337Z,68.60
2018-04-17T03:25:30.087Z,68.50
2018-04-17T03:27:57.940Z,68.70
2018-04-17T03:30:25.790Z,68.80
2018-04-17T03:32:53.539Z,68.70
2018-04-17T03:35:21.289Z,68.40
2018-04-17T03:37:49.139Z,68.10
2018-04-17T03:40:16.991Z,67.80
2018-04-17T03:42:44.849Z,68.00
2018-04-17T03:45:12.555Z,68.00
2018-04-17T03:47:40.443Z,67.60
2018-04-17T03:50:08.192Z,67.70
2018-04-17T03:52:36.044Z,67.60
2018-04-17T03:55:03.899Z,67.90
2018-04-17T03:57:31.575Z,68.10
2018-04-17T03:59:59.396Z,68.70
2018-04-17T04:02:27.247Z,68.90
2018-04-17T04:04:55.108Z,69.00
2018-04-17T04:07:22.950Z,69.20
2018-04-17T04:09:50.701Z,69.20
2018-04-17T04:12:18.448Z,69.50
2018-04-17T04:14:46.301Z,69.80
2018-04-17T04:17:25.933Z,69.70
2018-04-17T04:20:05.662Z,69.80
2018-04-17T04:22:45.284Z,69.80
2018-04-17T04:25:24.912Z,71.00
2018-04-17T04:27:52.762Z,71.00
2018-04-17T04:30:20.615Z,71.60
2018-04-17T04:32:48.465Z,71.90
2018-04-17T04:35:16.318Z,71.60
2018-04-17T04:37:44.168Z,71.40
2018-04-17T04:40:12.024Z,71.40
2018-04-17T04:42:39.872Z,71.20
2018-04-17T04:45:07.726Z,71.20
2018-04-17T04:47:35.664Z,71.20
2018-04-17T04:50:03.532Z,71.80
2018-04-17T04:52:31.385Z,72.00
2018-04-17T04:54:59.237Z,72.40
2018-04-17T04:57:27.099Z,72.80
2018-04-17T04:59:54.940Z,72.70
2018-04-17T05:02:22.690Z,72.90
2018-04-17T05:04:50.555Z,72.50
2018-04-17T05:07:18.403Z,71.90
2018-04-17T05:09:46.250Z,71.60
2018-04-17T05:12:14.099Z,71.20
2018-04-17T05:14:42.470Z,71.20
2018-04-17T05:17:10.314Z,71.50
2018-04-17T05:19:38.165Z,72.00
2018-04-17T05:22:06.117Z,72.50
2018-04-17T05:24:33.975Z,72.60
2018-04-17T05:27:01.827Z,73.00
2018-04-17T05:29:29.677Z,72.70
2018-04-17T05:31:57.528Z,72.70
2018-04-17T05:34:25.382Z,72.60
2018-04-17T05:36:53.232Z,72.60
2018-04-17T05:39:21.097Z,72.60
2018-04-17T05:41:48.874Z,72.90
2018-04-17T05:44:16.684Z,73.40
2018-04-17T05:46:44.536Z,73.60
2018-04-17T05:49:12.290Z,74.60
2018-04-17T05:51:40.136Z,74.10
2018-04-17T05:54:07.998Z,74.30
2018-04-17T05:56:35.844Z,74.40
2018-04-17T05:59:03.695Z,74.50
2018-04-17T06:01:31.546Z,74.40
2018-04-17T06:03:59.398Z,74.70
2018-04-17T06:06:27.250Z,75.00
2018-04-17T06:08:55.103Z,75.40
2018-04-17T06:11:22.952Z,75.70
2018-04-17T06:13:50.804Z,75.80
2018-04-17T06:16:18.554Z,75.90
2018-04-17T06:18:46.405Z,76.00
2018-04-17T06:21:14.155Z,76.20
2018-04-17T06:23:42.008Z,76.20
2018-04-17T06:26:09.832Z,76.30
2018-04-17T06:28:38.429Z,76.40
2018-04-17T06:31:06.282Z,76.50
2018-04-17T06:33:34.134Z,76.50
2018-04-17T06:36:01.985Z,76.70
2018-04-17T06:38:29.738Z,76.70
2018-04-17T06:40:57.585Z,76.70
2018-04-17T06:43:25.335Z,76.70
2018-04-17T06:45:53.187Z,76.60
2018-04-17T06:48:21.039Z,76.50
2018-04-17T06:50:48.788Z,76.60
2018-04-17T06:53:16.639Z,76.50
2018-04-17T06:55:44.491Z,76.50
2018-04-17T06:58:12.341Z,76.60
2018-04-17T07:00:40.195Z,76.50
2018-04-17T07:03:08.047Z,76.40
2018-04-17T07:05:35.906Z,76.50
2018-04-17T07:08:03.869Z,76.10
2018-04-17T07:10:31.707Z,75.80
2018-04-17T07:12:59.559Z,75.90
2018-04-17T07:15:27.308Z,75.50
2018-04-17T07:17:55.160Z,75.40
2018-04-17T07:20:22.911Z,75.10
2018-04-17T07:22:50.761Z,74.80
2018-04-17T07:25:18.611Z,74.80
2018-04-17T07:27:46.361Z,75.70
2018-04-17T07:30:14.214Z,75.20
2018-04-17T07:32:41.964Z,75.30
2018-04-17T07:35:09.710Z,75.50
2018-04-17T07:37:37.563Z,75.40
2018-04-17T07:40:05.419Z,75.20
2018-04-17T07:42:33.105Z,75.50
2018-04-17T07:45:01.737Z,73.90
2018-04-17T07:47:29.596Z,73.90
2018-04-17T07:49:57.442Z,73.30
2018-04-17T07:52:25.130Z,72.50
2018-04-17T07:54:52.939Z,72.70
2018-04-17T07:57:20.789Z,73.50
2018-04-17T07:59:48.541Z,73.70
2018-04-17T08:02:16.391Z,74.20
2018-04-17T08:04:44.139Z,74.50
2018-04-17T08:07:11.932Z,74.10
2018-04-17T08:09:39.743Z,74.10
2018-04-17T08:12:07.592Z,73.90
2018-04-17T08:14:35.345Z,74.00
2018-04-17T08:17:03.101Z,74.40
2018-04-17T08:19:30.945Z,74.50
2018-04-17T08:21:58.797Z,74.80
2018-04-17T08:24:26.581Z,74.70
2018-04-17T08:26:55.115Z,74.60
2018-04-17T08:29:22.967Z,74.60
2018-04-17T08:31:50.817Z,74.10
2018-04-17T08:34:18.669Z,74.50
2018-04-17T08:36:46.423Z,74.60
2018-04-17T08:39:14.168Z,74.20
2018-04-17T08:41:42.019Z,74.30
2018-04-17T08:44:09.872Z,74.10
2018-04-17T08:46:37.724Z,73.10
2018-04-17T08:49:05.577Z,73.50
2018-04-17T08:51:33.339Z,74.50
2018-04-17T08:54:01.181Z,75.40
2018-04-17T08:56:29.747Z,75.80
2018-04-17T08:58:57.496Z,75.50
2018-04-17T09:01:25.348Z,75.20
2018-04-17T09:03:53.211Z,75.20
2018-04-17T09:06:21.051Z,75.80
2018-04-17T09:08:48.805Z,76.10
2018-04-17T09:11:16.553Z,75.90
2018-04-17T09:13:44.406Z,76.90
2018-04-17T09:16:12.152Z,76.20
2018-04-17T09:18:40.002Z,75.90
2018-04-17T09:21:07.751Z,75.80
2018-04-17T09:23:35.611Z,75.90
2018-04-17T09:26:03.467Z,75.40
2018-04-17T09:28:31.311Z,74.50
2018-04-17T09:30:59.165Z,74.40
2018-04-17T09:33:26.911Z,74.00
2018-04-17T09:35:54.809Z,74.60
2018-04-17T09:38:23.331Z,73.90
2018-04-17T09:40:51.183Z,73.70
2018-04-17T09:43:19.033Z,74.40
2018-04-17T09:45:46.903Z,74.00
2018-04-17T09:48:14.739Z,73.80
2018-04-17T09:50:42.486Z,75.20
2018-04-17T09:53:10.338Z,75.30
2018-04-17T09:55:38.909Z,75.10
2018-04-17T09:58:07.374Z,75.10
2018-04-17T10:00:40.761Z,75.00
2018-04-17T10:03:08.609Z,74.00
2018-04-17T10:05:36.665Z,74.30
2018-04-17T10:08:04.518Z,74.60
2018-04-17T10:10:32.377Z,74.20
2018-04-17T10:13:00.221Z,73.90
2018-04-17T10:15:28.276Z,73.90
2018-04-17T10:17:56.037Z,74.20
2018-04-17T10:20:23.818Z,74.10
2018-04-17T10:22:51.635Z,73.90
2018-04-17T10:25:19.480Z,73.60
2018-04-17T10:27:47.307Z,73.20
2018-04-17T10:30:15.136Z,73.10
2018-04-17T10:32:42.941Z,72.80
2018-04-17T10:35:10.988Z,72.90
2018-04-17T10:37:38.887Z,72.20
2018-04-17T10:40:07.514Z,73.50
2018-04-17T10:42:35.573Z,73.40
2018-04-17T10:45:03.427Z,74.10
2018-04-17T10:47:31.273Z,74.60
2018-04-17T10:49:59.237Z,74.60
2018-04-17T10:52:27.080Z,73.00
2018-04-17T10:54:54.993Z,74.70
2018-04-17T10:57:22.888Z,75.40
2018-04-17T10:59:50.741Z,75.40
2018-04-17T11:02:18.634Z,75.50
2018-04-17T11:04:47.474Z,73.20
2018-04-17T11:07:15.214Z,73.20
2018-04-17T11:09:43.131Z,74.10
2018-04-17T11:12:10.942Z,74.50
2018-04-17T11:14:38.775Z,74.40
2018-04-17T11:17:07.050Z,73.90
2018-04-17T11:19:34.830Z,75.00
2018-04-17T11:22:02.737Z,75.50
2018-04-17T11:24:31.327Z,75.20
2018-04-17T11:26:59.976Z,75.40
2018-04-17T11:29:27.833Z,75.30
2018-04-17T11:31:55.790Z,74.90
2018-04-17T11:34:24.357Z,74.50
2018-04-17T11:36:52.201Z,74.50
2018-04-17T11:39:20.054Z,74.30
2018-04-17T11:41:48.008Z,73.20
2018-04-17T11:44:15.859Z,70.80
2018-04-17T11:46:43.551Z,71.40
2018-04-17T11:49:11.461Z,71.20
2018-04-17T11:51:39.212Z,70.50
2018-04-17T11:54:07.890Z,69.80
2018-04-17T11:56:35.644Z,68.40
2018-04-17T11:59:03.381Z,68.80
2018-04-17T12:01:31.233Z,69.50
2018-04-17T12:03:59.087Z,69.90
2018-04-17T12:06:26.938Z,71.20
2018-04-17T12:08:54.789Z,70.50
2018-04-17T12:11:22.641Z,69.90
2018-04-17T12:13:50.388Z,70.80
2018-04-17T12:16:18.244Z,70.50
2018-04-17T12:18:46.092Z,69.90
2018-04-17T12:21:13.841Z,70.50
2018-04-17T12:23:41.697Z,70.30
2018-04-17T12:26:09.441Z,69.40
2018-04-17T12:28:37.294Z,68.50
2018-04-17T12:31:05.047Z,70.30
2018-04-17T12:33:32.900Z,69.10
2018-04-17T12:36:00.751Z,70.20
2018-04-17T12:38:28.601Z,70.80
2018-04-17T12:40:56.349Z,72.20
2018-04-17T12:43:24.202Z,70.20
2018-04-17T12:45:51.949Z,69.70
2018-04-17T12:48:19.703Z,69.90
2018-04-17T12:50:47.551Z,69.10
2018-04-17T12:53:15.405Z,69.50
2018-04-17T12:55:43.118Z,70.90
2018-04-17T12:58:10.902Z,70.50
2018-04-17T13:00:38.754Z,69.40
2018-04-17T13:03:06.609Z,70.20
2018-04-17T13:05:34.357Z,69.60
2018-04-17T13:08:02.108Z,70.60
2018-04-17T13:10:29.958Z,70.30
2018-04-17T13:12:57.707Z,69.40
2018-04-17T13:15:25.559Z,67.90
2018-04-17T13:17:53.449Z,68.20
2018-04-17T13:20:21.982Z,69.10
2018-04-17T13:22:49.833Z,69.10
2018-04-17T13:25:17.584Z,68.70
2018-04-17T13:27:45.433Z,67.70
2018-04-17T13:30:13.117Z,68.00
2018-04-17T13:32:41.752Z,68.80
2018-04-17T13:35:09.603Z,68.70
2018-04-17T13:37:37.460Z,67.30
2018-04-17T13:40:05.313Z,67.50
2018-04-17T13:42:33.269Z,70.20
2018-04-17T13:45:01.831Z,67.50
2018-04-17T13:47:29.585Z,67.40
2018-04-17T13:49:57.434Z,67.30
2018-04-17T13:52:25.124Z,67.80
2018-04-17T13:54:52.932Z,69.10
2018-04-17T13:57:20.681Z,67.70
2018-04-17T13:59:48.532Z,68.60
2018-04-17T14:02:16.282Z,68.70
2018-04-17T14:04:44.039Z,68.70
2018-04-17T14:07:11.881Z,68.40
2018-04-17T14:09:39.634Z,67.20
2018-04-17T14:12:07.483Z,66.80
2018-04-17T14:14:35.235Z,65.70
2018-04-17T14:17:03.088Z,65.00
2018-04-17T14:19:30.835Z,66.60
2018-04-17T14:21:58.688Z,66.00
2018-04-17T14:24:26.482Z,66.00
2018-04-17T14:26:54.290Z,64.70
2018-04-17T14:29:22.140Z,63.40
2018-04-17T14:31:49.890Z,64.40
2018-04-17T14:34:17.743Z,63.50
2018-04-17T14:36:45.492Z,62.20
2018-04-17T14:39:13.343Z,62.30
2018-04-17T14:41:41.037Z,60.60
2018-04-17T14:44:08.947Z,61.30
2018-04-17T14:46:36.716Z,62.20
2018-04-17T14:49:04.456Z,62.20
2018-04-17T14:51:32.299Z,62.70
2018-04-17T14:54:00.049Z,63.50
2018-04-17T14:56:28.016Z,63.30
2018-04-17T14:58:56.570Z,62.90
2018-04-17T15:01:24.457Z,62.90
2018-04-17T15:03:53.097Z,62.70
2018-04-17T15:06:20.944Z,62.60
2018-04-17T15:08:48.837Z,60.60
2018-04-17T15:11:16.647Z,60.70
2018-04-17T15:13:44.498Z,61.50
2018-04-17T15:16:12.251Z,63.00
2018-04-17T15:18:40.100Z,63.40
2018-04-17T15:21:08.034Z,63.40
2018-04-17T15:23:35.867Z,64.10
2018-04-17T15:26:03.767Z,65.00
2018-04-17T15:28:32.440Z,66.30
2018-04-17T15:31:00.282Z,66.30
2018-04-17T15:33:28.133Z,66.20
2018-04-17T15:35:55.936Z,64.70
2018-04-17T15:38:23.737Z,63.70
2018-04-17T15:40:51.490Z,64.20
2018-04-17T15:43:19.336Z,67.00
2018-04-17T15:45:47.087Z,65.50
2018-04-17T15:48:14.939Z,64.30
2018-04-17T15:50:42.629Z,64.90
2018-04-17T15:53:10.540Z,66.20
2018-04-17T15:55:39.017Z,66.70
2018-04-17T15:58:07.676Z,66.10
2018-04-17T16:00:36.248Z,63.50
2018-04-17T16:03:03.988Z,63.50
2018-04-17T16:05:31.850Z,61.80
2018-04-17T16:07:59.534Z,62.80
2018-04-17T16:10:28.166Z,62.20
2018-04-17T16:12:56.179Z,62.30
2018-04-17T16:15:24.081Z,61.40
2018-04-17T16:17:52.850Z,61.20
2018-04-17T16:20:20.699Z,61.10
2018-04-17T16:22:48.450Z,60.00
2018-04-17T16:25:16.344Z,60.00
2018-04-17T16:27:45.737Z,61.70
2018-04-17T16:30:13.642Z,62.40
2018-04-17T16:32:41.391Z,62.20
2018-04-17T16:35:09.141Z,63.10
2018-04-17T16:37:36.992Z,63.20
2018-04-17T16:40:04.848Z,63.00
2018-04-17T16:42:32.748Z,63.20
2018-04-17T16:45:00.553Z,63.20
2018-04-17T16:47:28.302Z,63.70
2018-04-17T16:49:56.051Z,63.70
2018-04-17T16:52:24.210Z,62.70
2018-04-17T16:54:52.088Z,60.60
2018-04-17T16:57:20.753Z,60.50
2018-04-17T16:59:48.592Z,60.50
2018-04-17T17:02:16.536Z,61.20
2018-04-17T17:04:44.395Z,61.20
2018-04-17T17:07:12.241Z,60.90
2018-04-17T17:09:40.096Z,61.00
2018-04-17T17:12:07.844Z,61.50
2018-04-17T17:14:35.703Z,61.30
2018-04-17T17:17:03.443Z,60.60
2018-04-17T17:19:31.213Z,60.10
2018-04-17T17:21:59.048Z,60.30
2018-04-17T17:24:26.796Z,60.90
2018-04-17T17:26:54.545Z,60.00
2018-04-17T17:29:22.498Z,59.90
2018-04-17T17:31:50.247Z,59.90
2018-04-17T17:34:18.101Z,60.00
2018-04-17T17:36:45.955Z,60.80
2018-04-17T17:39:13.802Z,60.00
2018-04-17T17:41:41.654Z,60.00
2018-04-17T17:44:09.438Z,59.50
2018-04-17T17:46:38.076Z,58.70
2018-04-17T17:49:05.875Z,58.70
2018-04-17T17:51:33.678Z,58.70
2018-04-17T17:54:01.529Z,58.80
2018-04-17T17:56:29.281Z,59.10
2018-04-17T17:58:57.065Z,59.40
2018-04-17T18:01:25.700Z,59.50
2018-04-17T18:03:53.501Z,59.50
2018-04-17T18:06:22.125Z,59.80
2018-04-17T18:08:49.867Z,59.70
2018-04-17T18:11:17.657Z,59.80
2018-04-17T18:13:46.187Z,59.70
2018-04-17T18:16:13.937Z,59.70
2018-04-17T18:18:41.790Z,59.60
2018-04-17T18:21:09.477Z,59.70
2018-04-17T18:23:38.002Z,59.60
2018-04-17T18:26:05.858Z,59.50
2018-04-17T18:28:33.709Z,59.60
2018-04-17T18:31:01.465Z,59.60
2018-04-17T18:33:29.313Z,59.50
2018-04-17T18:35:57.060Z,59.60
2018-04-17T18:38:24.912Z,59.50
2018-04-17T18:40:52.667Z,59.20
2018-04-17T18:43:20.410Z,59.00
2018-04-17T18:45:48.283Z,58.90
2018-04-17T18:48:16.013Z,58.50
2018-04-17T18:50:43.862Z,58.60
2018-04-17T18:53:11.613Z,59.20
2018-04-17T18:55:39.464Z,58.70
2018-04-17T18:58:08.348Z,59.20
2018-04-17T20:35:44.983Z,60.00
2018-04-17T20:38:36.579Z,59.90
2018-04-17T20:41:04.213Z,59.90
2018-04-17T20:43:31.830Z,59.60
2018-04-17T20:45:59.459Z,59.60
2018-04-17T20:48:27.103Z,59.40
2018-04-17T20:50:54.767Z,59.10
2018-04-17T20:53:22.383Z,58.70
2018-04-17T20:55:50.034Z,59.00
2018-04-17T20:58:18.418Z,59.50
2018-04-17T21:00:46.845Z,59.50
2018-04-17T21:03:14.470Z,59.50
2018-04-17T21:05:42.159Z,59.30
2018-04-17T21:08:09.790Z,59.30
2018-04-17T21:10:37.438Z,59.00
2018-04-17T21:13:05.827Z,59.00
2018-04-17T21:15:33.477Z,58.90
2018-04-17T21:18:01.858Z,58.90
2018-04-17T21:20:30.218Z,58.70
2018-04-17T21:22:57.866Z,58.70
2018-04-17T21:25:25.559Z,58.70
2018-04-17T21:27:53.959Z,59.80
2018-04-17T21:30:21.554Z,59.70
2018-04-17T21:32:49.193Z,59.90
2018-04-17T21:35:16.826Z,59.70
2018-04-17T21:37:45.184Z,60.30
2018-04-17T21:40:12.854Z,60.20
2018-04-17T21:42:40.452Z,60.10
2018-04-17T21:45:08.047Z,60.20
2018-04-17T21:47:35.675Z,60.50
2018-04-17T21:50:03.283Z,60.40
2018-04-17T21:52:30.930Z,60.30
2018-04-17T21:54:58.531Z,59.80
2018-04-17T21:57:26.924Z,59.40
2018-04-17T21:59:55.321Z,59.10
2018-04-17T22:02:22.911Z,59.10
2018-04-17T22:04:50.538Z,59.00
2018-04-17T22:07:18.143Z,59.30
2018-04-17T22:09:45.786Z,59.40
2018-04-17T22:12:13.395Z,59.40
2018-04-17T22:14:40.994Z,59.50
2018-04-17T22:17:08.631Z,59.50
2018-04-17T22:19:37.023Z,59.60
2018-04-17T22:22:04.680Z,59.60
2018-04-17T22:24:33.060Z,59.50
2018-04-17T22:27:00.723Z,59.50
2018-04-17T22:29:29.078Z,59.70
2018-04-17T22:31:56.723Z,59.80
2018-04-17T22:34:24.336Z,59.70
2018-04-17T22:36:51.950Z,59.90
2018-04-17T22:39:19.599Z,60.00
2018-04-17T22:41:47.198Z,60.10
2018-04-17T22:44:15.627Z,60.10
2018-04-17T22:46:43.239Z,60.10
2018-04-17T22:49:11.614Z,60.70
2018-04-17T22:51:39.285Z,60.70
2018-04-17T22:54:07.673Z,60.20
2018-04-17T22:56:36.082Z,60.60
2018-04-17T22:59:03.747Z,60.60
2018-04-17T23:01:31.345Z,60.70
2018-04-17T23:03:59.715Z,60.90
2018-04-17T23:06:27.343Z,60.90
2018-04-17T23:08:54.980Z,60.90
2018-04-17T23:11:22.579Z,60.90
2018-04-17T23:13:50.216Z,60.80
2018-04-17T23:16:17.807Z,61.70
2018-04-17T23:18:45.402Z,61.00
2018-04-17T23:21:13.800Z,61.10
2018-04-17T23:23:41.394Z,61.10
2018-04-17T23:26:09.038Z,61.20
2018-04-17T23:28:36.635Z,61.40
2018-04-17T23:31:04.235Z,61.20
2018-04-17T23:33:31.862Z,61.20
2018-04-17T23:35:59.455Z,61.00
2018-04-17T23:38:27.082Z,61.40
2018-04-17T23:40:54.710Z,61.40
2018-04-17T23:43:22.358Z,61.50
2018-04-17T23:45:49.950Z,61.60
2018-04-17T23:48:17.582Z,61.30
2018-04-17T23:50:45.217Z,61.10
2018-04-17T23:53:13.585Z,61.10
2018-04-17T23:55:41.986Z,60.90
2018-04-17T23:58:09.579Z,60.80
